createdAt,value
2022-11-15T00:00:03.298Z,2.67
2022-11-15T00:05:03.285Z,3.38
2022-11-15T00:10:03.182Z,3.55
2022-11-15T00:15:02.845Z,3.22
2022-11-15T00:20:02.697Z,3.54
2022-11-15T00:25:03.262Z,3.86
2022-11-15T00:30:03.428Z,3.94
2022-11-15T00:35:02.995Z,3.95
2022-11-15T00:40:02.568Z,3.89
2022-11-15T00:45:02.611Z,3.67
2022-11-15T00:50:03.100Z,3.27
2022-11-15T00:55:04.452Z,3.43
2022-11-15T01:00:02.854Z,3.32
2022-11-15T01:05:03.465Z,3.33
2022-11-15T01:10:03.070Z,3.48
2022-11-15T01:15:03.157Z,3.61
2022-11-15T01:20:03.031Z,3.7
2022-11-15T01:25:02.829Z,3.54
2022-11-15T01:30:04.490Z,3.46
2022-11-15T01:35:02.602Z,3.65
2022-11-15T01:40:02.859Z,3.68
2022-11-15T01:45:02.859Z,3.44
2022-11-15T01:50:03.590Z,3.25
2022-11-15T01:55:04.200Z,2.56
2022-11-15T02:00:02.715Z,2.68
2022-11-15T02:05:03.567Z,2.55
2022-11-15T02:10:03.216Z,2.39
2022-11-15T02:15:03.115Z,2.97
2022-11-15T02:20:03.139Z,3.21
2022-11-15T02:25:02.974Z,3.17
2022-11-15T02:30:02.844Z,3.34
2022-11-15T02:35:03.475Z,3.43
2022-11-15T02:40:03.041Z,3.08
2022-11-15T02:45:03.177Z,2.88
2022-11-15T02:50:03.032Z,2.96
2022-11-15T02:55:03.650Z,2.93
2022-11-15T03:00:03.467Z,2.69
2022-11-15T03:05:03.023Z,2.88
2022-11-15T03:10:02.856Z,3
2022-11-15T03:15:02.784Z,3.17
2022-11-15T03:20:03.545Z,3.51
2022-11-15T03:25:03.090Z,3.48
2022-11-15T03:30:02.866Z,3.49
2022-11-15T03:35:02.611Z,3.43
2022-11-15T03:40:02.988Z,3.78
2022-11-15T03:45:02.957Z,3.83
2022-11-15T03:50:02.886Z,3.8
2022-11-15T03:55:04.578Z,3.72
2022-11-15T04:00:03.442Z,3.65
2022-11-15T04:05:02.816Z,3.47
2022-11-15T04:10:02.469Z,3.51
2022-11-15T04:15:03.364Z,3.33
2022-11-15T04:20:03.484Z,3.33
2022-11-15T04:25:03.215Z,3.47
2022-11-15T04:30:02.829Z,3.39
2022-11-15T04:35:03.337Z,3.26
2022-11-15T04:40:03.146Z,3.18
2022-11-15T04:45:03.054Z,3.31
2022-11-15T04:50:02.857Z,3.17
2022-11-15T04:55:08.761Z,2.77
2022-11-15T05:00:02.485Z,2.69
2022-11-15T05:05:03.351Z,3.09
2022-11-15T05:10:03.302Z,3.16
2022-11-15T05:15:03.106Z,3.19
2022-11-15T05:20:02.688Z,3.17
2022-11-15T05:25:03.315Z,3.17
2022-11-15T05:30:03.005Z,3.16
2022-11-15T05:35:02.835Z,3.08
2022-11-15T05:40:02.724Z,3.03
2022-11-15T05:45:03.559Z,2.94
2022-11-15T05:50:03.026Z,3.04
2022-11-15T05:55:04.056Z,2.94
2022-11-15T06:00:02.868Z,3.05
2022-11-15T06:05:03.443Z,3.2
2022-11-15T06:10:03.109Z,3.11
2022-11-15T06:15:03.204Z,3.23
2022-11-15T06:20:03.123Z,3.22
2022-11-15T06:25:05.959Z,3.35
2022-11-15T06:30:02.786Z,3.46
2022-11-15T06:35:03.555Z,3.46
2022-11-15T06:40:03.060Z,3.41
2022-11-15T06:45:03.007Z,3.54
2022-11-15T06:50:02.900Z,3.72
2022-11-15T06:55:04.426Z,3.89
2022-11-15T07:00:02.600Z,3.54
2022-11-15T07:05:03.264Z,3.41
2022-11-15T07:10:03.155Z,3.47
2022-11-15T07:15:03.082Z,3.52
2022-11-15T07:20:02.929Z,3.74
2022-11-15T07:25:03.960Z,4.5
2022-11-15T07:30:02.499Z,5.03
2022-11-15T07:35:03.307Z,5.7
2022-11-15T07:40:03.537Z,5.97
2022-11-15T07:45:03.408Z,6.18
2022-11-15T07:50:02.960Z,6.62
2022-11-15T07:55:04.121Z,6.95
2022-11-15T08:00:03.421Z,7.65
2022-11-15T08:05:03.293Z,8.02
2022-11-15T08:10:03.085Z,7.93
2022-11-15T08:15:02.476Z,7.98
2022-11-15T08:20:02.703Z,8.08
2022-11-15T08:25:03.644Z,8.13
2022-11-15T08:30:03.268Z,8.11
2022-11-15T08:35:02.753Z,8.41
2022-11-15T08:40:02.611Z,8.52
2022-11-15T08:45:03.536Z,8.67
2022-11-15T08:50:03.381Z,8.81
2022-11-15T08:55:04.386Z,9.1
2022-11-15T09:00:02.596Z,9.41
2022-11-15T09:05:03.616Z,9.26
2022-11-15T09:10:03.451Z,9.69
2022-11-15T09:15:03.260Z,9.8
2022-11-15T09:20:02.839Z,10.28
2022-11-15T09:25:02.778Z,9.83
2022-11-15T09:30:02.831Z,10.41
2022-11-15T09:35:03.594Z,10.96
2022-11-15T09:40:03.372Z,10.61
2022-11-15T09:45:03.006Z,11.02
2022-11-15T09:50:02.542Z,11.14
2022-11-15T09:55:04.733Z,11.81
2022-11-15T10:00:47.954Z,11.63
2022-11-15T10:05:03.403Z,11.69
2022-11-15T10:10:02.978Z,12
2022-11-15T10:15:02.625Z,12.31
2022-11-15T10:20:06.768Z,12.56
2022-11-15T10:25:03.284Z,12.6
2022-11-15T10:30:03.131Z,13.06
2022-11-15T10:35:02.371Z,13.14
2022-11-15T10:40:03.626Z,13.43
2022-11-15T10:45:03.409Z,12.9
2022-11-15T10:50:02.942Z,13.23
2022-11-15T10:55:03.910Z,13.63
2022-11-15T11:00:02.566Z,13.71
2022-11-15T11:05:03.383Z,13.68
2022-11-15T11:10:09.748Z,13.4
2022-11-15T11:15:03.332Z,13.38
2022-11-15T11:20:02.833Z,13.82
2022-11-15T11:25:02.691Z,13.88
2022-11-15T11:30:03.611Z,13.69
2022-11-15T11:35:03.290Z,13.74
2022-11-15T11:40:11.343Z,13.94
2022-11-15T11:45:02.983Z,14.31
2022-11-15T11:50:02.854Z,14.42
2022-11-15T11:55:03.610Z,14.28
2022-11-15T12:00:03.484Z,14.5
2022-11-15T12:05:03.081Z,14.51
2022-11-15T12:10:02.709Z,14.42
2022-11-15T12:15:02.653Z,14.52
2022-11-15T12:20:03.558Z,14.74
2022-11-15T12:25:03.309Z,14.96
2022-11-15T12:30:02.878Z,14.87
2022-11-15T12:35:02.384Z,15.04
2022-11-15T12:40:04.805Z,15.04
2022-11-15T12:45:03.195Z,14.98
2022-11-15T12:50:02.911Z,14.92
2022-11-15T12:55:04.928Z,14.76
2022-11-15T13:00:03.530Z,14.83
2022-11-15T13:05:02.772Z,15.25
2022-11-15T13:10:03.374Z,15.03
2022-11-15T13:15:03.360Z,14.86
2022-11-15T13:20:02.946Z,14.47
2022-11-15T13:25:02.610Z,14.71
2022-11-15T13:30:03.571Z,14.54
2022-11-15T13:35:02.649Z,14.5
2022-11-15T13:40:03.745Z,14.25
2022-11-15T13:45:03.243Z,14.63
2022-11-15T13:50:02.726Z,15.23
2022-11-15T13:55:04.109Z,15.47
2022-11-15T14:00:03.396Z,15.11
2022-11-15T14:05:03.406Z,14.94
2022-11-15T14:10:02.789Z,15
2022-11-15T14:15:02.659Z,14.48
2022-11-15T14:20:03.511Z,14.32
2022-11-15T14:25:03.101Z,13.7
2022-11-15T14:30:03.050Z,13.45
2022-11-15T14:35:02.604Z,13.35
2022-11-15T14:40:03.221Z,12.99
2022-11-15T14:45:03.720Z,12.7
2022-11-15T14:50:03.179Z,12.76
2022-11-15T14:55:03.844Z,12.29
2022-11-15T15:00:02.666Z,12.09
2022-11-15T15:05:03.462Z,11.74
2022-11-15T15:10:40.388Z,11.3
2022-11-15T15:15:03.161Z,10.94
2022-11-15T15:20:03.947Z,10.3
2022-11-15T15:25:03.182Z,10.09
2022-11-15T15:30:02.999Z,9.82
2022-11-15T15:35:03.485Z,9.81
2022-11-15T15:40:03.731Z,9.75
2022-11-15T15:45:02.884Z,9.49
2022-11-15T15:50:02.925Z,9.31
2022-11-15T15:55:04.551Z,9.08
2022-11-15T16:00:03.132Z,8.87
2022-11-15T16:05:02.908Z,8.79
2022-11-15T16:10:02.738Z,8.89
2022-11-15T16:15:03.453Z,8.66
2022-11-15T16:20:03.315Z,8.51
2022-11-15T16:25:02.682Z,8.49
2022-11-15T16:30:08.045Z,8.51
2022-11-15T16:35:02.613Z,8.47
2022-11-15T16:40:03.678Z,8.26
2022-11-15T16:45:02.918Z,8.13
2022-11-15T16:50:03.561Z,8.27
2022-11-15T16:55:04.285Z,8.36
2022-11-15T17:00:02.930Z,8.11
2022-11-15T17:05:20.189Z,7.66
2022-11-15T17:10:03.074Z,7.18
2022-11-15T17:15:02.901Z,7.45
2022-11-15T17:20:03.613Z,7.71
2022-11-15T17:25:03.513Z,7.56
2022-11-15T17:30:03.363Z,6.88
2022-11-15T17:35:02.707Z,6.89
2022-11-15T17:40:02.560Z,6.86
2022-11-15T17:45:10.947Z,6.12
2022-11-15T17:50:03.520Z,4.98
2022-11-15T17:55:03.636Z,4.83
2022-11-15T18:00:03.505Z,4.1
2022-11-15T18:05:03.231Z,4.75
2022-11-15T18:10:03.070Z,4.86
2022-11-15T18:15:03.057Z,5.96
2022-11-15T18:20:02.724Z,5.88
2022-11-15T18:25:03.168Z,5.41
2022-11-15T18:30:03.272Z,6.12
2022-11-15T18:35:03.320Z,6.06
2022-11-15T18:40:02.993Z,5.89
2022-11-15T18:45:03.285Z,5.82
2022-11-15T18:50:03.383Z,5.89
2022-11-15T18:55:03.675Z,5.6
2022-11-15T19:00:03.565Z,5.35
2022-11-15T19:05:03.371Z,5.87
2022-11-15T19:10:03.626Z,5.99
2022-11-15T19:15:10.238Z,6.02
2022-11-15T19:20:03.465Z,5.84
2022-11-15T19:25:02.848Z,5.63
2022-11-15T19:30:03.391Z,5.56
2022-11-15T19:35:03.583Z,5.54
2022-11-15T19:40:02.628Z,5.47
2022-11-15T19:45:03.695Z,5.34
2022-11-15T19:50:03.591Z,5.13
2022-11-15T19:55:04.388Z,5.13
2022-11-15T20:05:02.556Z,5.19
2022-11-15T20:10:03.428Z,5.12
2022-11-15T20:15:02.941Z,5.1
2022-11-15T20:20:02.942Z,5.24
2022-11-15T20:25:03.531Z,4.99
2022-11-15T20:30:03.284Z,5
2022-11-15T20:35:03.237Z,5.11
2022-11-15T20:40:02.929Z,5.03
2022-11-15T20:45:03.524Z,4.66
2022-11-15T20:50:43.390Z,3.76
2022-11-15T20:55:04.088Z,4.54
2022-11-15T21:00:08.932Z,4.4
2022-11-15T21:05:02.972Z,4.23
2022-11-15T21:10:03.401Z,3.84
2022-11-15T21:15:03.382Z,4.04
2022-11-15T21:20:02.816Z,3.92
2022-11-15T21:25:02.528Z,3
2022-11-15T21:30:03.335Z,3.71
2022-11-15T21:35:03.288Z,3.95
2022-11-15T21:40:03.642Z,3.77
2022-11-15T21:45:03.537Z,3.78
2022-11-15T21:50:02.722Z,3.81
2022-11-15T21:55:04.771Z,3.86
2022-11-15T22:00:03.229Z,3.84
2022-11-15T22:05:02.963Z,3.65
2022-11-15T22:10:02.459Z,3.32
2022-11-15T22:15:03.580Z,3.52
2022-11-15T22:20:44.363Z,3.63
2022-11-15T22:25:03.174Z,3.49
2022-11-15T22:30:03.197Z,3.37
2022-11-15T22:35:03.383Z,3.32
2022-11-15T22:40:02.965Z,3.18
2022-11-15T22:45:02.579Z,3.13
2022-11-15T22:50:03.361Z,3.02
2022-11-15T22:55:04.176Z,2.94
2022-11-15T23:00:03.373Z,2.82
2022-11-15T23:05:02.587Z,2.89
2022-11-15T23:10:02.645Z,2.8
2022-11-15T23:15:02.814Z,2.72
2022-11-15T23:20:43.840Z,2.71
2022-11-15T23:25:02.456Z,2.76
2022-11-15T23:30:03.507Z,2.64
2022-11-15T23:35:02.672Z,2.66
2022-11-15T23:40:02.845Z,2.59
2022-11-15T23:45:03.163Z,2.82
2022-11-15T23:50:02.713Z,2.76
2022-11-15T23:55:04.008Z,2.74
